Time;durP1;ratioP1;P1;durP2;ratioP2;P2;SDS_P1;SDS_P2;PMS_P1;PMS_P2;Temp;Humidity;BMP_temperature;BMP_pressure;BME280_temperature;BME280_humidity;BME280_pressure;Samples;Min_cycle;Max_cycle;Signal;HPM_P1;HPM_P2
2024/01/29 00:02:00;;;;;;;10.83;9.73;;;0.00;99.90;;;0.55;98.24;99248.53;10398182;28;20229;-65
2024/01/29 00:07:04;;;;;;;10.33;9.23;;;0.00;99.90;;;0.52;98.21;99255.72;10395118;28;20346;-65
2024/01/29 00:12:09;;;;;;;10.70;9.70;;;0.00;99.90;;;0.51;97.91;99244.72;10397405;28;20234;-66
2024/01/29 00:17:12;;;;;;;10.17;9.17;;;0.00;99.90;;;0.43;98.38;99241.31;10396215;28;20617;-65
2024/01/29 00:22:15;;;;;;;11.20;9.97;;;0.00;99.90;;;0.45;98.44;99234.84;10397351;28;20259;-66
2024/01/29 00:27:20;;;;;;;10.90;9.90;;;0.00;99.90;;;0.46;98.92;99233.25;10396105;28;20233;-65
2024/01/29 00:32:23;;;;;;;9.83;8.93;;;0.00;99.90;;;0.40;99.02;99233.41;10396789;28;20260;-65
2024/01/29 00:37:27;;;;;;;10.63;9.70;;;-0.10;99.90;;;0.38;99.08;99231.44;10395267;28;20267;-65
2024/01/29 00:42:31;;;;;;;10.43;9.40;;;-0.10;99.90;;;0.35;99.10;99231.06;10396375;28;20606;-65
2024/01/29 00:47:34;;;;;;;10.00;9.00;;;-0.20;99.90;;;0.34;99.08;99237.69;10395676;28;20236;-65
2024/01/29 00:52:38;;;;;;;9.50;8.50;;;-0.20;99.90;;;0.26;100.00;99225.88;10395545;28;20582;-65
2024/01/29 00:57:42;;;;;;;9.93;8.93;;;-0.20;99.90;;;0.37;99.20;99224.59;10396482;28;20316;-65
2024/01/29 01:02:45;;;;;;;10.20;9.20;;;-0.20;99.90;;;0.27;99.56;99234.28;10397550;23;20233;-65
2024/01/29 01:07:49;;;;;;;10.43;9.43;;;-0.20;99.90;;;0.19;100.00;99229.25;10362447;28;20227;-65
2024/01/29 01:12:53;;;;;;;9.60;8.70;;;-0.30;99.90;;;0.22;99.81;99226.19;10353857;28;20235;-65
2024/01/29 01:17:57;;;;;;;10.03;9.03;;;-0.30;99.90;;;0.19;100.00;99234.28;10340422;28;20447;-65
2024/01/29 01:23:01;;;;;;;10.77;9.67;;;-0.30;99.90;;;0.14;100.00;99234.44;10303799;28;20242;-65
2024/01/29 01:28:07;;;;;;;9.60;8.80;;;-0.30;99.90;;;0.14;100.00;99239.47;10344659;28;20227;-65
2024/01/29 01:33:10;;;;;;;9.47;8.47;;;-0.40;99.90;;;0.09;100.00;99245.59;10346197;28;20304;-65
2024/01/29 01:38:14;;;;;;;11.67;9.73;;;-0.40;99.90;;;-0.04;100.00;99229.00;10345176;28;20222;-65
2024/01/29 01:43:21;;;;;;;9.43;8.63;;;-0.40;99.90;;;-0.02;100.00;99227.59;10347102;28;20225;-65
2024/01/29 01:48:24;;;;;;;10.50;9.50;;;-0.50;99.90;;;-0.13;100.00;99227.91;10346724;28;20226;-65
2024/01/29 01:53:32;;;;;;;9.73;8.83;;;-0.50;99.90;;;-0.07;100.00;99227.75;10343800;28;20233;-65
2024/01/29 01:58:40;;;;;;;10.03;9.03;;;-0.50;99.90;;;0.03;100.00;99229.75;10328261;28;20225;-65
2024/01/29 02:03:43;;;;;;;9.60;8.67;;;-0.50;99.90;;;-0.04;100.00;99223.09;10348060;28;20320;-65
2024/01/29 02:08:47;;;;;;;8.93;8.13;;;-0.50;99.90;;;-0.10;100.00;99230.81;10338025;28;20399;-65
2024/01/29 02:13:51;;;;;;;9.67;8.67;;;-0.50;99.90;;;-0.07;100.00;99228.66;10332336;28;20358;-65
2024/01/29 02:18:55;;;;;;;9.23;8.30;;;-0.50;99.90;;;-0.14;100.00;99220.19;10386098;28;20317;-65
2024/01/29 02:23:59;;;;;;;9.47;8.50;;;-0.60;99.90;;;-0.08;100.00;99219.31;10387624;28;20709;-65
2024/01/29 02:29:03;;;;;;;10.20;9.20;;;-0.50;99.90;;;-0.06;100.00;99229.53;10387876;28;20223;-65
2024/01/29 02:34:06;;;;;;;10.67;9.20;;;-0.60;99.90;;;-0.08;100.00;99219.31;10384989;28;20331;-66
2024/01/29 02:39:12;;;;;;;8.60;7.90;;;-0.60;99.90;;;-0.03;100.00;99215.75;10384449;28;20222;-65
2024/01/29 02:44:15;;;;;;;8.83;8.10;;;-0.60;99.90;;;-0.03;100.00;99215.75;10382635;28;20252;-65
2024/01/29 02:49:19;;;;;;;9.00;8.17;;;-0.50;99.90;;;-0.06;100.00;99210.38;10383381;28;20230;-65
2024/01/29 02:54:23;;;;;;;8.60;7.80;;;-0.60;99.90;;;-0.03;100.00;99208.22;10383077;28;20233;-65
2024/01/29 02:59:27;;;;;;;8.53;7.70;;;-0.60;99.90;;;-0.04;100.00;99213.94;10385891;28;20229;-65
2024/01/29 03:04:30;;;;;;;7.07;6.37;;;-0.60;99.90;;;0.00;100.00;99212.72;10385755;28;20237;-65
2024/01/29 03:09:35;;;;;;;6.33;5.83;;;-0.70;99.90;;;-0.10;99.79;99205.66;10382722;28;20232;-65
2024/01/29 03:14:38;;;;;;;7.03;6.43;;;-0.90;99.90;;;-0.27;100.00;99212.81;10384076;28;20325;-65
2024/01/29 03:19:42;;;;;;;6.60;6.10;;;-1.00;99.90;;;-0.33;100.00;99212.06;10388667;28;20742;-65
2024/01/29 03:24:46;;;;;;;7.57;6.87;;;-1.00;99.90;;;-0.34;100.00;99218.72;10383569;28;20233;-65
2024/01/29 03:29:50;;;;;;;8.30;6.80;;;-1.10;99.90;;;-0.40;100.00;99219.56;10381749;28;20221;-65
2024/01/29 03:34:53;;;;;;;7.13;6.53;;;-1.20;99.90;;;-0.44;100.00;99218.31;10381679;28;20282;-65
2024/01/29 03:39:57;;;;;;;6.40;5.83;;;-1.20;99.90;;;-0.59;100.00;99209.81;10382839;28;20433;-65
2024/01/29 03:45:01;;;;;;;6.20;5.70;;;-1.30;99.90;;;-0.61;100.00;99212.84;10379447;28;20391;-65
2024/01/29 03:50:06;;;;;;;6.30;5.80;;;-1.30;99.90;;;-0.59;100.00;99209.81;10379597;28;20727;-66
2024/01/29 03:55:11;;;;;;;5.93;5.33;;;-1.40;99.90;;;-0.69;100.00;99211.91;10382807;28;20244;-65
2024/01/29 04:00:18;;;;;;;6.60;6.00;;;-1.40;99.90;;;-0.70;100.00;99217.66;10381580;28;20682;-65
2024/01/29 04:05:21;;;;;;;6.63;6.03;;;-1.40;99.90;;;-0.74;100.00;99215.50;10384120;28;20237;-65
2024/01/29 04:10:26;;;;;;;6.63;6.13;;;-1.40;99.90;;;-0.75;100.00;99211.16;10382309;28;20242;-65
2024/01/29 04:15:30;;;;;;;6.30;5.70;;;-1.40;99.90;;;-0.67;100.00;99220.53;10381406;28;20788;-65
2024/01/29 04:20:33;;;;;;;7.33;6.73;;;-1.40;99.90;;;-0.69;100.00;99221.94;10380216;28;20987;-65
2024/01/29 04:25:38;;;;;;;7.93;6.57;;;-1.40;99.90;;;-0.80;100.00;99224.75;10379493;28;20278;-65
2024/01/29 04:30:42;;;;;;;7.13;6.63;;;-1.50;99.90;;;-0.87;100.00;99222.22;10380183;28;20224;-65
2024/01/29 04:35:45;;;;;;;7.73;7.03;;;-1.50;99.90;;;-0.81;100.00;99212.94;10382458;28;20322;-65
2024/01/29 04:40:50;;;;;;;6.60;5.90;;;-1.40;99.90;;;-0.74;100.00;99218.00;10382500;28;20227;-66
2024/01/29 04:45:53;;;;;;;6.53;6.13;;;-1.40;99.90;;;-0.67;100.00;99228.06;10380150;28;20981;-65
2024/01/29 04:50:56;;;;;;;7.67;6.97;;;-1.40;99.90;;;-0.76;100.00;99234.47;10382927;28;20253;-65
2024/01/29 04:56:02;;;;;;;7.37;6.77;;;-1.50;99.90;;;-0.95;100.00;99234.72;10378728;28;20674;-65
2024/01/29 05:01:06;;;;;;;8.50;7.80;;;-1.60;99.90;;;-1.05;100.00;99235.91;10383908;28;20623;-65
2024/01/29 05:06:09;;;;;;;7.43;6.83;;;-1.70;99.90;;;-1.06;100.00;99240.03;10373639;28;20227;-65
2024/01/29 05:11:14;;;;;;;8.63;7.83;;;-1.70;99.90;;;-1.05;100.00;99236.81;10380951;28;20235;-65
2024/01/29 05:16:17;;;;;;;7.83;6.83;;;-1.60;99.90;;;-0.99;100.00;99247.59;10375398;28;20233;-65
2024/01/29 05:21:20;;;;;;;8.17;7.37;;;-1.50;99.90;;;-0.97;100.00;99236.16;10379681;28;20233;-65
2024/01/29 05:26:25;;;;;;;8.10;7.50;;;-1.50;99.90;;;-0.90;100.00;99247.84;10373627;28;20885;-65
2024/01/29 05:31:28;;;;;;;8.53;7.73;;;-1.40;99.90;;;-0.88;100.00;99235.50;10377010;28;20237;-65
2024/01/29 05:36:31;;;;;;;8.07;7.40;;;-1.40;99.90;;;-0.83;100.00;99249.47;10370663;28;20260;-65
2024/01/29 05:41:36;;;;;;;8.83;8.03;;;-1.50;99.90;;;-0.85;100.00;99248.41;10377343;28;20368;-65
2024/01/29 05:46:39;;;;;;;7.37;6.77;;;-1.60;99.90;;;-0.93;100.00;99247.47;10373390;28;22190;-65
2024/01/29 05:51:42;;;;;;;7.73;6.77;;;-1.60;99.90;;;-0.97;100.00;99260.34;10375067;28;20725;-65
2024/01/29 05:56:47;;;;;;;10.83;9.73;;;-1.60;99.90;;;-1.08;100.00;99259.00;10372629;28;20224;-66
2024/01/29 06:01:53;;;;;;;9.20;8.20;;;-1.60;99.90;;;-1.04;100.00;99253.66;10382163;28;20227;-66
2024/01/29 06:06:57;;;;;;;8.90;8.00;;;-1.60;99.90;;;-1.01;100.00;99261.56;10385743;28;20246;-66
2024/01/29 06:12:02;;;;;;;8.73;7.93;;;-1.60;99.90;;;-0.99;100.00;99257.63;10388438;28;20257;-66
2024/01/29 06:17:06;;;;;;;7.63;6.93;;;-1.50;99.90;;;-0.92;100.00;99265.22;10393377;28;20218;-66
2024/01/29 06:22:09;;;;;;;7.10;6.37;;;-1.40;99.90;;;-0.80;100.00;99259.88;10388524;28;20236;-66
2024/01/29 06:27:13;;;;;;;8.23;6.93;;;-1.30;99.90;;;-0.74;100.00;99261.56;10388758;28;20234;-66
2024/01/29 06:32:17;;;;;;;7.83;7.03;;;-1.30;99.90;;;-0.66;100.00;99265.00;10384588;28;20222;-66
2024/01/29 06:37:20;;;;;;;9.67;7.90;;;-1.20;99.90;;;-0.70;100.00;99267.84;10382362;28;20320;-66
2024/01/29 06:42:25;;;;;;;8.80;8.00;;;-1.30;99.90;;;-0.66;100.00;99269.13;10384103;28;20590;-66
2024/01/29 06:47:28;;;;;;;8.97;8.10;;;-1.20;99.90;;;-0.69;100.00;99270.56;10387225;28;20228;-66
2024/01/29 06:52:31;;;;;;;9.33;8.33;;;-1.20;99.90;;;-0.58;100.00;99276.88;10383035;28;20232;-66
2024/01/29 06:57:36;;;;;;;8.93;8.03;;;-1.20;99.90;;;-0.56;100.00;99279.59;10386450;28;20342;-66
2024/01/29 07:02:39;;;;;;;9.13;8.23;;;-1.10;99.90;;;-0.52;100.00;99285.16;10383847;28;20306;-66
2024/01/29 07:07:42;;;;;;;10.03;8.90;;;-1.00;99.90;;;-0.58;100.00;99286.91;10383017;28;20236;-66
2024/01/29 07:12:46;;;;;;;10.07;9.07;;;-1.00;99.90;;;-0.51;100.00;99292.00;10374326;28;20232;-66
2024/01/29 07:17:50;;;;;;;10.90;9.63;;;-1.00;99.90;;;-0.42;100.00;99306.41;10377295;28;20243;-66
2024/01/29 07:22:53;;;;;;;11.40;9.87;;;-0.90;99.90;;;-0.38;100.00;99311.06;10378510;28;20275;-66
2024/01/29 07:27:59;;;;;;;12.00;10.80;;;-0.90;99.90;;;-0.19;100.00;99292.50;10381926;28;20250;-66
2024/01/29 07:33:03;;;;;;;11.80;10.70;;;-0.60;99.90;;;0.15;100.00;99296.59;10382615;28;20736;-66
2024/01/29 07:38:07;;;;;;;11.93;10.77;;;-0.30;99.90;;;0.55;100.00;99299.72;10381661;28;20228;-66
2024/01/29 07:43:11;;;;;;;12.80;10.07;;;0.10;99.90;;;0.80;100.00;99280.88;10383126;28;20240;-65
2024/01/29 07:48:14;;;;;;;11.07;10.07;;;0.40;99.90;;;0.95;98.57;99284.28;10382455;28;20680;-66
2024/01/29 07:53:18;;;;;;;9.87;8.87;;;0.50;99.90;;;1.37;99.13;99284.94;10384633;28;20234;-66
2024/01/29 07:58:23;;;;;;;12.17;11.00;;;1.00;99.90;;;1.77;96.11;99299.56;10376869;28;20273;-66
2024/01/29 08:03:26;;;;;;;12.67;11.37;;;1.20;99.90;;;1.80;93.52;99305.88;10382355;28;20232;-66
2024/01/29 08:08:30;;;;;;;10.97;9.97;;;1.20;99.90;;;1.94;94.01;99304.03;10377265;28;20648;-66
2024/01/29 08:13:35;;;;;;;11.30;10.27;;;1.50;99.90;;;2.10;93.41;99297.47;10375843;28;20223;-66
2024/01/29 08:18:38;;;;;;;12.17;11.07;;;1.60;99.90;;;2.51;92.59;99310.41;10381627;28;20671;-66
2024/01/29 08:23:41;;;;;;;11.37;10.27;;;2.00;99.90;;;2.98;90.14;99315.66;10375432;28;20225;-65
2024/01/29 08:28:46;;;;;;;11.43;10.17;;;2.20;99.90;;;3.02;89.24;99310.19;10383591;28;20225;-66
2024/01/29 08:33:49;;;;;;;11.30;10.17;;;2.40;99.90;;;3.09;89.98;99310.16;10375116;28;20236;-66
2024/01/29 08:38:52;;;;;;;10.90;9.90;;;2.50;99.90;;;3.43;89.14;99293.56;10376803;28;20793;-66
2024/01/29 08:43:57;;;;;;;13.57;11.57;;;2.90;99.90;;;3.93;86.27;99295.56;10379729;28;20230;-66
2024/01/29 08:49:00;;;;;;;13.20;12.10;;;3.30;99.90;;;3.95;84.38;99304.22;10376247;28;20229;-66
2024/01/29 08:54:03;;;;;;;13.90;12.57;;;3.30;99.90;;;3.88;85.04;99295.81;10375712;28;20705;-67
2024/01/29 08:59:08;;;;;;;13.23;11.90;;;3.20;99.90;;;4.47;84.91;99302.06;10380101;28;20745;-66
2024/01/29 09:04:12;;;;;;;11.90;10.80;;;3.80;99.90;;;4.69;82.08;99316.94;10374842;28;20225;-67
2024/01/29 09:09:15;;;;;;;12.27;10.97;;;4.00;99.90;;;4.94;82.02;99306.06;10374982;28;20253;-66
2024/01/29 09:14:21;;;;;;;12.73;11.53;;;4.30;99.90;;;5.13;80.72;99308.84;10375271;28;20246;-66
2024/01/29 09:19:24;;;;;;;12.77;11.43;;;4.60;99.90;;;5.25;80.24;99311.72;10373371;28;20227;-67
2024/01/29 09:24:28;;;;;;;13.23;11.83;;;4.60;99.90;;;5.47;79.28;99321.50;10374050;28;20307;-66
2024/01/29 09:29:36;;;;;;;13.07;11.83;;;4.90;99.90;;;5.74;77.84;99324.22;10372486;28;20594;-66
2024/01/29 09:34:39;;;;;;;14.37;12.73;;;5.10;99.90;;;5.78;77.93;99333.94;10373328;28;20248;-66
2024/01/29 09:39:42;;;;;;;15.40;12.93;;;5.20;99.90;;;5.81;77.46;99341.88;10382511;28;20697;-66
2024/01/29 09:44:48;;;;;;;13.33;12.03;;;5.30;99.90;;;6.11;77.23;99342.22;10378913;28;20303;-66
2024/01/29 09:49:51;;;;;;;13.43;12.03;;;5.50;99.90;;;6.40;76.50;99338.34;10391984;28;20310;-67
2024/01/29 09:54:55;;;;;;;12.50;11.40;;;5.90;99.90;;;6.67;75.13;99339.22;10385514;28;20580;-66
2024/01/29 10:00:00;;;;;;;13.37;12.17;;;6.10;99.90;;;6.90;75.84;99354.13;10382781;28;20729;-66
2024/01/29 10:05:08;;;;;;;13.80;12.50;;;6.40;99.90;;;6.88;74.48;99350.53;10381607;28;20233;-66
2024/01/29 10:10:11;;;;;;;13.43;12.23;;;6.30;99.90;;;7.10;74.36;99346.75;10384261;28;20709;-66
2024/01/29 10:15:16;;;;;;;14.97;13.23;;;6.50;99.90;;;7.28;73.98;99355.19;10380529;28;20713;-67
2024/01/29 10:20:20;;;;;;;14.60;13.30;;;6.70;99.90;;;7.31;74.12;99344.44;10387475;28;20644;-66
2024/01/29 10:25:24;;;;;;;14.63;13.23;;;6.70;99.90;;;7.52;73.64;99337.88;10385208;28;20835;-66
2024/01/29 10:30:29;;;;;;;15.13;13.53;;;7.00;99.90;;;7.76;72.48;99329.09;10383948;28;20236;-67
2024/01/29 10:35:34;;;;;;;15.80;14.30;;;7.20;99.90;;;7.90;70.98;99326.16;10381750;28;20238;-67
2024/01/29 10:40:38;;;;;;;16.23;14.53;;;7.40;99.90;;;8.05;71.82;99332.63;10377565;28;20823;-66
2024/01/29 10:45:47;;;;;;;15.33;13.83;;;7.50;99.90;;;8.23;71.44;99332.50;10383334;28;20232;-67
2024/01/29 10:50:51;;;;;;;14.90;13.40;;;7.70;99.90;;;8.46;70.35;99327.81;10381653;28;20713;-67
2024/01/29 10:55:56;;;;;;;15.10;13.63;;;7.90;99.90;;;8.73;69.88;99315.75;10381978;28;20593;-67
2024/01/29 11:01:02;;;;;;;15.43;13.43;;;8.10;99.90;;;8.79;68.97;99316.28;10375239;28;20229;-67
2024/01/29 11:06:16;;;;;;;14.97;13.47;;;8.20;99.90;;;8.87;68.82;99317.84;10379936;28;20280;-67
2024/01/29 11:11:20;;;;;;;14.13;12.93;;;8.30;99.90;;;9.06;67.57;99310.13;10382116;28;20225;-67
2024/01/29 11:16:24;;;;;;;13.50;12.23;;;8.60;99.90;;;9.21;66.82;99298.69;10385546;28;20244;-66
2024/01/29 11:21:28;;;;;;;13.38;12.00;;;8.70;99.90;;;9.53;66.30;99298.00;10380366;28;20238;-67
2024/01/29 11:26:31;;;;;;;13.37;12.17;;;9.00;99.90;;;9.64;64.88;99297.22;10381486;28;20249;-67
2024/01/29 11:31:42;;;;;;;12.25;11.10;;;9.20;99.90;;;9.91;63.06;99295.19;10386295;28;20229;-67
2024/01/29 11:36:54;;;;;;;12.65;11.48;;;9.40;99.90;;;10.07;62.01;99287.09;10382887;28;20241;-66
2024/01/29 11:41:57;;;;;;;12.63;11.35;;;9.50;99.90;;;10.43;61.03;99289.25;10393666;28;21048;-67
2024/01/29 11:47:09;;;;;;;13.05;11.95;;;9.80;99.90;;;10.33;61.09;99282.50;10391804;28;20328;-67
2024/01/29 11:52:14;;;;;;;12.95;11.13;;;9.80;99.90;;;10.54;59.16;99283.31;10388012;28;20264;-67
2024/01/29 11:57:18;;;;;;;12.45;11.25;;;9.90;99.90;;;10.80;58.30;99270.06;10394089;28;20232;-67
2024/01/29 12:02:23;;;;;;;12.48;11.15;;;10.20;99.90;;;10.80;57.27;99262.38;10382243;28;20713;-67
2024/01/29 12:07:26;;;;;;;11.68;9.90;;;10.20;99.90;;;10.82;57.72;99249.72;10389159;28;20230;-67
2024/01/29 12:12:29;;;;;;;9.30;8.40;;;10.20;99.90;;;10.91;56.41;99240.22;10394422;28;20611;-67
2024/01/29 12:17:37;;;;;;;9.70;8.63;;;10.30;99.90;;;11.07;55.84;99226.91;10389000;28;20238;-68
2024/01/29 12:22:41;;;;;;;10.32;9.23;;;10.40;99.90;;;11.09;56.59;99225.38;10380402;28;20229;-67
2024/01/29 12:27:45;;;;;;;10.60;9.50;;;10.50;99.90;;;11.27;54.84;99226.81;10378524;28;20229;-67
2024/01/29 12:32:49;;;;;;;8.07;6.93;;;10.60;99.90;;;11.38;52.49;99219.91;10374784;28;20230;-67
2024/01/29 12:37:53;;;;;;;7.72;7.13;;;10.80;98.10;;;11.53;53.81;99215.06;10376256;28;20753;-67
2024/01/29 12:43:01;;;;;;;8.38;7.50;;;10.90;98.90;;;11.82;52.31;99207.00;10382540;28;20309;-67
2024/01/29 12:48:12;;;;;;;12.57;8.63;;;11.10;98.20;;;12.06;49.58;99205.38;10381756;28;20299;-67
2024/01/29 12:53:15;;;;;;;8.27;7.55;;;11.30;96.10;;;11.94;50.54;99196.81;10378298;28;20233;-66
2024/01/29 12:58:19;;;;;;;6.72;6.22;;;11.30;96.10;;;11.86;49.38;99190.22;10380129;28;20328;-67
2024/01/29 13:03:24;;;;;;;7.05;6.45;;;11.30;94.80;;;11.94;48.08;99191.69;10377678;28;20233;-67
2024/01/29 13:08:28;;;;;;;7.50;6.65;;;11.30;93.90;;;12.22;48.85;99185.97;10379712;28;20303;-67
2024/01/29 13:13:33;;;;;;;6.22;5.63;;;11.50;94.30;;;12.09;47.66;99176.53;10378839;28;20713;-67
2024/01/29 13:18:37;;;;;;;5.85;5.35;;;11.50;93.30;;;12.02;49.38;99170.06;10375244;28;20328;-67
2024/01/29 13:23:41;;;;;;;6.55;5.95;;;11.40;94.60;;;12.29;48.49;99171.16;10381488;28;20304;-67
2024/01/29 13:28:44;;;;;;;6.78;6.18;;;11.50;94.60;;;12.49;48.17;99159.75;10377846;28;20230;-66
2024/01/29 13:33:48;;;;;;;7.20;6.60;;;11.80;94.10;;;12.57;47.85;99157.72;10377664;28;20240;-67
2024/01/29 13:38:52;;;;;;;6.00;5.40;;;12.00;93.80;;;12.52;48.64;99146.25;10383103;28;20717;-67
2024/01/29 13:43:55;;;;;;;8.07;7.28;;;11.80;94.70;;;12.85;47.34;99152.84;10376033;28;20637;-67
2024/01/29 13:49:00;;;;;;;7.32;6.53;;;12.10;93.60;;;13.11;46.13;99152.06;10369679;28;20686;-67
2024/01/29 13:54:03;;;;;;;8.00;7.10;;;12.40;92.80;;;12.91;47.48;99152.38;10374132;28;20746;-67
2024/01/29 13:59:07;;;;;;;8.07;7.28;;;12.30;92.80;;;12.85;47.63;99152.84;10376471;28;20234;-68
2024/01/29 14:04:11;;;;;;;6.47;5.97;;;12.20;93.50;;;12.83;47.60;99154.41;10383513;28;20225;-67
2024/01/29 14:09:14;;;;;;;6.70;6.10;;;12.10;93.40;;;12.81;48.43;99150.84;10383273;28;20233;-67
2024/01/29 14:14:18;;;;;;;5.75;5.25;;;12.00;94.10;;;12.74;48.65;99146.97;10381762;28;20312;-67
2024/01/29 14:19:28;;;;;;;6.50;5.97;;;11.90;94.20;;;12.72;48.92;99145.06;10380300;28;20221;-67
2024/01/29 14:24:33;;;;;;;6.25;5.75;;;11.80;94.20;;;12.75;46.69;99141.03;10375957;28;20221;-67
2024/01/29 14:29:36;;;;;;;9.70;8.80;;;11.90;93.50;;;12.63;47.65;99141.06;10375340;28;20229;-67
2024/01/29 14:34:41;;;;;;;7.70;7.00;;;11.80;93.00;;;12.73;48.65;99149.41;10376224;28;20225;-67
2024/01/29 14:39:44;;;;;;;7.30;6.60;;;11.80;94.30;;;12.58;50.42;99142.44;10386201;28;20277;-67
2024/01/29 14:44:47;;;;;;;6.70;6.10;;;11.70;96.40;;;12.36;53.46;99134.91;10381731;28;20341;-67
2024/01/29 14:49:52;;;;;;;7.00;6.35;;;11.50;98.80;;;12.29;54.28;99137.81;10395805;28;20234;-67
2024/01/29 14:54:56;;;;;;;8.20;6.95;;;11.30;99.90;;;12.14;56.14;99147.88;10382164;28;20218;-67
2024/01/29 14:59:59;;;;;;;7.75;6.68;;;11.20;99.90;;;11.91;58.23;99138.53;10380799;28;20258;-67
2024/01/29 15:05:07;;;;;;;9.63;7.63;;;11.00;99.90;;;11.70;59.88;99148.09;10379421;28;20233;-67
2024/01/29 15:10:11;;;;;;;7.80;7.00;;;10.80;99.90;;;11.52;61.29;99146.72;10387203;28;20221;-67
2024/01/29 15:15:14;;;;;;;7.47;6.55;;;10.60;99.90;;;11.38;62.96;99138.00;10387136;28;20233;-67
2024/01/29 15:20:19;;;;;;;7.35;6.32;;;10.40;99.90;;;11.25;65.21;99140.44;10378072;28;20415;-67
2024/01/29 15:25:22;;;;;;;7.20;6.50;;;10.30;99.90;;;11.14;66.53;99147.31;10378441;28;20231;-67
2024/01/29 15:30:25;;;;;;;8.00;6.82;;;10.20;99.90;;;10.87;68.80;99150.31;10382687;28;20306;-66
2024/01/29 15:35:30;;;;;;;6.30;5.80;;;10.00;99.90;;;10.71;70.56;99153.38;10378450;28;20241;-67
2024/01/29 15:40:34;;;;;;;7.25;6.65;;;9.70;99.90;;;10.46;72.25;99146.34;10376437;28;20222;-67
2024/01/29 15:45:37;;;;;;;7.15;6.45;;;9.50;99.90;;;10.21;73.17;99151.16;10377104;28;20303;-68
2024/01/29 15:50:41;;;;;;;6.97;6.28;;;9.20;99.90;;;10.02;74.46;99151.38;10378954;28;20232;-68
2024/01/29 15:55:44;;;;;;;6.43;5.82;;;9.00;99.90;;;9.83;75.67;99159.19;10376136;28;20226;-68
2024/01/29 16:00:48;;;;;;;7.25;6.63;;;8.90;99.90;;;9.61;76.52;99170.97;10378278;28;20227;-68
2024/01/29 16:05:52;;;;;;;6.65;6.05;;;8.70;99.90;;;9.44;78.42;99177.25;10383086;28;20221;-68
2024/01/29 16:10:56;;;;;;;7.93;6.90;;;8.50;99.90;;;9.21;79.30;99183.00;10377651;28;20633;-68
2024/01/29 16:15:59;;;;;;;7.22;6.63;;;8.30;99.90;;;9.00;80.68;99182.97;10375401;28;20230;-68
2024/01/29 16:21:04;;;;;;;6.78;6.07;;;8.10;99.90;;;8.80;81.63;99190.59;10383172;28;20230;-67
2024/01/29 16:26:07;;;;;;;6.45;5.85;;;7.80;99.90;;;8.59;83.39;99189.66;10374545;28;20716;-68
2024/01/29 16:31:10;;;;;;;7.80;6.15;;;7.70;99.90;;;8.48;83.09;99193.81;10377431;28;20315;-68
2024/01/29 16:36:20;;;;;;;7.25;6.55;;;7.50;99.90;;;8.22;84.38;99203.38;10371476;28;20411;-68
2024/01/29 16:41:25;;;;;;;8.13;7.43;;;7.20;99.90;;;8.01;85.03;99203.28;10375126;28;20237;-67
2024/01/29 16:46:29;;;;;;;6.63;6.00;;;7.10;99.90;;;7.87;84.66;99211.34;10371850;28;20230;-67
2024/01/29 16:51:33;;;;;;;5.93;5.43;;;7.00;99.90;;;7.74;85.85;99214.41;10375945;28;20230;-68
2024/01/29 16:56:41;;;;;;;8.77;7.93;;;6.90;99.90;;;7.62;86.17;99216.75;10372687;28;20321;-68
2024/01/29 17:01:45;;;;;;;8.57;7.67;;;6.70;99.90;;;7.39;86.94;99222.28;10374413;28;20706;-67
2024/01/29 17:06:50;;;;;;;8.47;7.67;;;6.50;99.90;;;7.23;86.46;99217.44;10379496;28;20792;-68
2024/01/29 17:11:53;;;;;;;8.70;7.90;;;6.40;99.90;;;7.10;86.45;99212.00;10373379;28;20328;-67
2024/01/29 17:16:57;;;;;;;8.80;8.07;;;6.20;99.90;;;6.93;88.69;99220.59;10377949;28;20270;-67
2024/01/29 17:22:01;;;;;;;8.03;7.33;;;6.00;99.90;;;6.82;88.44;99233.06;10372618;28;20241;-68
2024/01/29 17:27:05;;;;;;;8.23;7.40;;;5.90;99.90;;;6.64;88.80;99232.22;10383765;28;20226;-67
2024/01/29 17:32:08;;;;;;;6.80;6.20;;;5.80;99.90;;;6.50;88.47;99233.47;10375882;28;20233;-68
2024/01/29 17:37:14;;;;;;;7.10;6.50;;;5.60;99.90;;;6.40;87.89;99246.91;10380825;28;20250;-67
2024/01/29 17:42:17;;;;;;;6.97;6.37;;;5.50;99.90;;;6.25;87.73;99250.53;10377687;28;20689;-67
2024/01/29 17:47:21;;;;;;;8.57;7.77;;;5.40;99.90;;;6.15;88.82;99258.91;10373345;28;20253;-67
2024/01/29 17:52:25;;;;;;;12.30;11.30;;;5.20;99.90;;;6.00;90.15;99257.41;10382060;28;20240;-67
2024/01/29 17:57:29;;;;;;;10.13;9.17;;;5.10;99.90;;;5.87;90.63;99258.75;10381139;28;20638;-68
2024/01/29 18:02:32;;;;;;;11.90;10.80;;;5.00;99.90;;;5.71;89.59;99262.16;10380231;28;20337;-67
2024/01/29 18:07:37;;;;;;;12.37;11.27;;;4.90;99.90;;;5.60;88.66;99256.91;10396970;28;20222;-67
2024/01/29 18:12:40;;;;;;;12.97;11.47;;;4.80;99.90;;;5.67;88.63;99260.97;10400403;28;20650;-67
2024/01/29 18:17:44;;;;;;;14.73;13.40;;;4.90;99.90;;;5.61;88.84;99255.28;10393367;28;20234;-67
2024/01/29 18:22:48;;;;;;;13.33;11.27;;;4.80;99.90;;;5.54;88.95;99268.97;10383869;28;20259;-67
2024/01/29 18:27:51;;;;;;;9.10;8.20;;;4.70;99.90;;;5.48;88.72;99277.63;10387702;28;20737;-67
2024/01/29 18:32:55;;;;;;;10.13;9.23;;;4.70;99.90;;;5.41;89.95;99266.88;10391656;28;20868;-67
2024/01/29 18:37:59;;;;;;;8.43;7.70;;;4.50;99.90;;;5.03;91.58;99269.72;10386900;28;20613;-67
2024/01/29 18:43:02;;;;;;;8.53;7.57;;;4.30;99.90;;;4.93;92.07;99267.91;10385687;28;20225;-67
2024/01/29 18:48:07;;;;;;;9.73;8.00;;;4.20;99.90;;;5.09;91.22;99270.34;10384597;28;20725;-68
2024/01/29 18:53:13;;;;;;;9.13;8.27;;;4.30;99.90;;;5.19;91.17;99271.44;10385794;28;20235;-67
2024/01/29 18:58:17;;;;;;;8.93;8.03;;;4.50;99.90;;;4.99;91.25;99272.72;10381479;28;20236;-67
2024/01/29 19:03:21;;;;;;;8.73;7.93;;;4.20;99.90;;;4.76;91.48;99273.78;10380467;28;20296;-67
2024/01/29 19:08:26;;;;;;;11.73;10.53;;;3.90;99.90;;;4.57;91.39;99275.19;10383949;28;20225;-67
2024/01/29 19:13:29;;;;;;;12.87;11.67;;;3.70;99.90;;;4.42;92.48;99267.78;10382310;28;20222;-67
2024/01/29 19:18:33;;;;;;;12.33;11.13;;;3.60;99.90;;;4.34;93.45;99273.69;10380698;28;20236;-67
2024/01/29 19:23:38;;;;;;;11.03;10.00;;;3.60;99.90;;;4.39;93.48;99275.06;10389247;28;20225;-67
2024/01/29 19:28:41;;;;;;;11.23;10.00;;;3.70;99.90;;;4.36;93.57;99268.81;10389403;28;20621;-66
2024/01/29 19:33:44;;;;;;;11.73;9.53;;;3.70;99.90;;;4.33;93.53;99269.38;10390651;28;20681;-67
2024/01/29 19:38:49;;;;;;;9.23;8.40;;;3.60;99.90;;;4.28;94.76;99270.53;10379164;28;21261;-67
2024/01/29 19:43:52;;;;;;;10.33;9.43;;;3.60;99.90;;;4.35;94.68;99267.91;10383454;28;20676;-66
2024/01/29 19:48:55;;;;;;;11.80;10.60;;;3.70;99.90;;;4.39;94.63;99269.13;10383410;28;20231;-66
2024/01/29 19:54:00;;;;;;;12.03;10.73;;;3.70;99.90;;;4.36;94.71;99262.09;10377186;28;20237;-67
2024/01/29 19:59:03;;;;;;;12.00;10.80;;;3.60;99.90;;;4.32;95.56;99264.13;10389767;28;20230;-66
2024/01/29 20:04:06;;;;;;;11.00;9.90;;;3.60;99.90;;;4.36;95.13;99261.22;10384173;28;20241;-67
2024/01/29 20:09:11;;;;;;;11.80;10.60;;;3.70;99.90;;;4.25;94.31;99268.56;10391140;28;20505;-66
2024/01/29 20:14:14;;;;;;;12.53;11.37;;;3.40;99.90;;;4.00;93.95;99270.16;10384339;28;20248;-67
2024/01/29 20:19:17;;;;;;;10.93;9.83;;;3.20;99.90;;;3.91;95.30;99270.84;10383629;28;20234;-66
2024/01/29 20:24:22;;;;;;;10.77;9.87;;;3.20;99.90;;;3.81;95.43;99268.97;10384694;28;20730;-66
2024/01/29 20:29:25;;;;;;;10.83;9.77;;;3.10;99.90;;;3.69;95.69;99272.72;10401355;28;20233;-67
2024/01/29 20:34:28;;;;;;;10.63;9.57;;;2.90;99.90;;;3.64;95.54;99268.84;10394421;28;20241;-67
2024/01/29 20:39:33;;;;;;;14.60;12.83;;;2.90;99.90;;;3.51;95.42;99266.59;10392100;28;20253;-67
2024/01/29 20:44:36;;;;;;;76.13;44.50;;;2.60;99.90;;;3.30;95.48;99267.75;10394241;28;20634;-66
2024/01/29 20:49:39;;;;;;;22.03;15.47;;;2.40;99.90;;;3.17;95.54;99258.81;10388402;28;20217;-66
2024/01/29 20:54:44;;;;;;;10.93;9.80;;;2.40;99.90;;;3.07;96.96;99261.09;10376682;28;20232;-67
2024/01/29 20:59:49;;;;;;;12.23;10.40;;;2.40;99.90;;;3.13;97.23;99265.91;10383579;28;20232;-66
2024/01/29 21:04:52;;;;;;;14.53;12.97;;;2.40;99.90;;;3.10;96.10;99274.06;10388251;28;20325;-66